CDT,Max TemperatureF,Mean TemperatureF,Min TemperatureF,Max Dew PointF,MeanDew PointF,Min DewpointF,Max Humidity, Mean Humidity, Min Humidity, Max Sea Level PressureIn, Mean Sea Level PressureIn, Min Sea Level PressureIn, Max VisibilityMiles, Mean VisibilityMiles, Min VisibilityMiles, Max Wind SpeedMPH, Mean Wind SpeedMPH, Max Gust SpeedMPH,PrecipitationIn, CloudCover, Events, WindDirDegrees
2013-8-1,90,74,58,66,63,58,99,73,36,30.11,30.02,29.90,10,10,5,14,4,21,0.00,1,Thunderstorm,228
2013-8-2,75,70,64,67,64,59,97,86,59,30.08,29.98,29.91,10,9,3,8,2,,0.25,5,Rain-Thunderstorm,52
2013-8-3,78,68,58,64,57,50,99,72,39,30.23,30.16,30.07,10,9,5,8,4,,0.00,1,,29
2013-8-4,81,68,54,63,59,54,99,73,43,30.23,30.14,30.02,10,10,7,12,3,,0.00,2,Rain,130
2013-8-5,86,76,67,72,68,63,97,82,55,30.01,29.91,29.77,10,9,1,14,6,23,0.02,4,Rain-Thunderstorm,230
2013-8-6,88,75,62,73,66,59,99,76,38,29.91,29.84,29.76,10,8,1,15,3,17,0.00,1,Rain,222
2013-8-7,81,72,62,69,62,57,96,74,44,30.04,29.97,29.85,10,10,10,9,4,,0.00,2,,11
2013-8-8,75,68,61,69,63,57,96,82,64,30.08,30.03,29.99,10,10,4,8,3,,0.06,5,Rain,176
2013-8-9,83,72,63,66,59,50,98,70,32,30.17,30.10,30.03,10,8,0,9,2,,0.00,2,Fog,10
2013-8-10,82,69,57,68,61,55,96,78,47,30.21,30.16,30.08,10,10,7,10,2,,0.02,4,Rain,202
2013-8-11,84,74,65,71,67,63,96,78,59,30.14,30.06,30.00,10,10,7,14,6,20,0.02,4,Thunderstorm,202
2013-8-12,84,72,59,70,61,55,100,73,42,30.12,30.07,30.04,10,7,0,13,3,,0.00,3,Fog,8
2013-8-13,80,66,51,60,54,46,99,70,33,30.20,30.15,30.11,10,10,7,12,3,23,0.00,1,,27
2013-8-14,72,61,50,65,57,50,97,87,59,30.22,30.18,30.13,10,10,7,7,2,,0.03,3,Rain,187
2013-8-15,68,64,59,62,60,58,97,86,69,30.15,30.12,30.10,10,9,5,13,4,17,0.03,8,Rain,153
2013-8-16,77,68,59,62,59,55,96,75,48,30.21,30.18,30.14,10,10,10,14,3,18,0.00,6,,158
2013-8-17,81,68,55,61,56,54,96,70,39,30.21,30.17,30.13,10,10,4,14,4,20,0.00,3,,179
2013-8-18,82,66,52,62,56,51,98,69,38,30.16,30.11,30.06,10,8,0,17,4,21,0.00,1,Fog,190
2013-8-19,87,76,65,70,66,62,92,73,53,30.07,29.99,29.92,10,9,1,18,8,24,0.00,2,,181
2013-8-20,90,80,71,74,71,68,91,75,57,29.94,29.91,29.89,10,10,7,14,9,20,0.00,1,,192
2013-8-21,89,81,73,76,72,69,92,76,56,30.00,29.95,29.92,10,9,4,14,7,22,0.00,0,Thunderstorm,202
2013-8-22,86,78,70,75,70,65,97,78,49,30.11,30.07,29.99,10,10,3,17,5,31,0.81,3,Rain-Thunderstorm,69
2013-8-23,89,78,68,75,71,67,98,80,52,30.11,30.06,30.00,10,9,2,13,4,17,0.00,1,,143
2013-8-24,90,81,72,75,73,71,94,80,57,30.10,30.03,29.99,10,9,5,21,8,29,0.05,2,Rain-Thunderstorm,173
2013-8-25,93,84,75,77,74,72,89,72,53,30.09,30.05,30.01,10,10,10,22,12,28,0.00,0,,189
2013-8-26,94,84,75,76,73,71,86,70,52,30.06,29.99,29.91,10,9,0,20,11,25,0.00,0,,194
2013-8-27,93,85,77,79,73,68,94,68,52,29.93,29.89,29.88,10,9,2,15,10,21,0.00,0,,216
2013-8-28,95,82,70,75,71,68,98,72,42,30.01,29.97,29.93,10,9,1,10,2,,0.00,0,,186
2013-8-29,94,80,67,76,70,66,96,71,41,30.03,29.97,29.90,10,10,7,14,4,21,0.00,0,,181
2013-8-30,92,81,70,77,73,70,98,78,50,29.91,29.90,29.87,10,9,1,12,3,,0.00,1,,15
2013-8-31,91,78,64,72,68,63,99,75,38,29.90,29.86,29.79,10,9,1,8,1,,0.00,0,,234